Map

Track Data

SID SEASON NUMBER BASIN SUBBASIN NAME ISO_TIME NATURE LAT LON WMO_WIND WMO_PRES WMO_AGENCY TRACK_TYPE DIST2LAND LANDFALL IFLAG USA_AGENCY USA_ATCF_ID USA_LAT USA_LON USA_RECORD USA_STATUS USA_WIND USA_PRES USA_SSHS USA_R34_NE USA_R34_SE USA_R34_SW USA_R34_NW USA_R50_NE USA_R50_SE USA_R50_SW USA_R50_NW USA_R64_NE USA_R64_SE USA_R64_SW USA_R64_NW USA_POCI USA_ROCI USA_RMW USA_EYE TOKYO_LAT TOKYO_LON TOKYO_GRADE TOKYO_WIND TOKYO_PRES TOKYO_R50_DIR TOKYO_R50_LONG TOKYO_R50_SHORT TOKYO_R30_DIR TOKYO_R30_LONG TOKYO_R30_SHORT TOKYO_LAND CMA_LAT CMA_LON CMA_CAT CMA_WIND CMA_PRES HKO_LAT HKO_LON HKO_CAT HKO_WIND HKO_PRES NEWDELHI_LAT NEWDELHI_LON NEWDELHI_GRADE NEWDELHI_WIND NEWDELHI_PRES NEWDELHI_CI NEWDELHI_DP NEWDELHI_POCI REUNION_LAT REUNION_LON REUNION_TYPE REUNION_WIND REUNION_PRES REUNION_TNUM REUNION_CI REUNION_RMW REUNION_R34_NE REUNION_R34_SE REUNION_R34_SW REUNION_R34_NW REUNION_R50_NE REUNION_R50_SE REUNION_R50_SW REUNION_R50_NW REUNION_R64_NE REUNION_R64_SE REUNION_R64_SW REUNION_R64_NW BOM_LAT BOM_LON BOM_TYPE BOM_WIND BOM_PRES BOM_TNUM BOM_CI BOM_RMW BOM_R34_NE BOM_R34_SE BOM_R34_SW BOM_R34_NW BOM_R50_NE BOM_R50_SE BOM_R50_SW BOM_R50_NW BOM_R64_NE BOM_R64_SE BOM_R64_SW BOM_R64_NW BOM_ROCI BOM_POCI BOM_EYE BOM_POS_METHOD BOM_PRES_METHOD NADI_LAT NADI_LON NADI_CAT NADI_WIND NADI_PRES WELLINGTON_LAT WELLINGTON_LON WELLINGTON_WIND WELLINGTON_PRES DS824_LAT DS824_LON DS824_STAGE DS824_WIND DS824_PRES TD9636_LAT TD9636_LON TD9636_STAGE TD9636_WIND TD9636_PRES TD9635_LAT TD9635_LON TD9635_WIND TD9635_PRES TD9635_ROCI NEUMANN_LAT NEUMANN_LON NEUMANN_CLASS NEUMANN_WIND NEUMANN_PRES MLC_LAT MLC_LON MLC_CLASS MLC_WIND MLC_PRES USA_GUST BOM_GUST BOM_GUST_PER REUNION_GUST REUNION_GUST_PER USA_SEAHGT USA_SEARAD_NE USA_SEARAD_SE USA_SEARAD_SW USA_SEARAD_NW STORM_SPEED STORM_DIR
1929279N14142 1929 65 WP MM NOT_NAMED 1929-10-05 22:00:00 NR 14.0000 142.400 main 1806 1780 __________O___ -1 14.0000 142.400 2 14 273
1929279N14142 1929 65 WP MM NOT_NAMED 1929-10-06 00:00:00 NR 14.0225 141.936 main 1780 1718 __________P___ -1 14.0225 141.936 2 13 273
1929279N14142 1929 65 WP MM NOT_NAMED 1929-10-06 03:00:00 NR 14.0532 141.250 main 1718 1644 __________P___ -1 14.0532 141.250 2 13 272
1929279N14142 1929 65 WP MM NOT_NAMED 1929-10-06 06:00:00 NR 14.0783 140.595 main 1644 1580 __________P___ -1 14.0783 140.595 2 12 272
1929279N14142 1929 65 WP MM NOT_NAMED 1929-10-06 09:00:00 NR 14.0960 139.988 main 1580 1559 __________P___ -1 14.0960 139.988 2 12 272
1929279N14142 1929 65 WP MM NOT_NAMED 1929-10-06 10:00:00 NR 14.1000 139.800 main 1559 1516 __________O___ -1 14.1000 139.800 2 11 271
1929279N14142 1929 65 WP MM NOT_NAMED 1929-10-06 12:00:00 NR 14.1049 139.445 main 1516 1474 __________P___ -1 14.1049 139.445 2 10 270
1929279N14142 1929 65 WP MM NOT_NAMED 1929-10-06 15:00:00 NR 14.1065 138.952 main 1474 1422 __________P___ -1 14.1065 138.952 2 9 270
1929279N14142 1929 65 WP MM NOT_NAMED 1929-10-06 18:00:00 NR 14.1041 138.474 main 1422 1369 __________P___ -1 14.1041 138.474 2 9 270
1929279N14142 1929 65 WP MM NOT_NAMED 1929-10-06 21:00:00 NR 14.1008 137.976 main 1369 1348 __________P___ -1 14.1008 137.976 2 10 270
1929279N14142 1929 65 WP MM NOT_NAMED 1929-10-06 22:00:00 NR 14.1000 137.800 main 1348 1306 __________O___ -1 14.1000 137.800 7 11 269
1929279N14142 1929 65 WP MM NOT_NAMED 1929-10-07 00:00:00 NR 14.0895 137.412 main 1306 1242 __________P___ -1 14.0895 137.412 7 12 268
1929279N14142 1929 65 WP MM NOT_NAMED 1929-10-07 03:00:00 NR 14.0735 136.798 main 1242 1178 __________P___ -1 14.0735 136.798 7 12 269
1929279N14142 1929 65 WP MM NOT_NAMED 1929-10-07 06:00:00 NR 14.0683 136.160 main 1178 1103 __________P___ -1 14.0683 136.160 7 12 271
1929279N14142 1929 65 WP MM NOT_NAMED 1929-10-07 09:00:00 NR 14.0865 135.514 main 1103 1082 __________P___ -1 14.0865 135.514 7 13 272
1929279N14142 1929 65 WP MM NOT_NAMED 1929-10-07 10:00:00 NR 14.1000 135.300 main 1082 1040 __________O___ -1 14.1000 135.300 7 13 275
1929279N14142 1929 65 WP MM NOT_NAMED 1929-10-07 12:00:00 NR 14.1387 134.857 main 1040 968 __________P___ -1 14.1387 134.857 7 13 276
1929279N14142 1929 65 WP MM NOT_NAMED 1929-10-07 15:00:00 NR 14.2219 134.193 main 968 908 __________P___ -1 14.2219 134.193 7 13 279
1929279N14142 1929 65 WP MM NOT_NAMED 1929-10-07 18:00:00 NR 14.3295 133.555 main 908 848 __________P___ -1 14.3295 133.555 7 12 281
1929279N14142 1929 65 WP MM NOT_NAMED 1929-10-07 21:00:00 NR 14.4551 132.975 main 851 831 __________P___ -1 14.4551 132.975 7 11 283
1929279N14142 1929 65 WP MM NOT_NAMED 1929-10-07 22:00:00 NR 14.5000 132.800 main 831 803 __________O___ -1 14.5000 132.800 7 10 285
1929279N14142 1929 65 WP MM NOT_NAMED 1929-10-08 00:00:00 NR 14.5774 132.493 main 803 766 __________P___ -1 14.5774 132.493 7 9 287
1929279N14142 1929 65 WP MM NOT_NAMED 1929-10-08 03:00:00 NR 14.7065 132.095 main 766 735 __________P___ -1 14.7065 132.095 7 8 291
1929279N14142 1929 65 WP MM NOT_NAMED 1929-10-08 06:00:00 NR 14.8566 131.745 main 735 710 __________P___ -1 14.8566 131.745 7 7 296
1929279N14142 1929 65 WP MM NOT_NAMED 1929-10-08 09:00:00 NR 15.0339 131.413 main 710 706 __________P___ -1 15.0339 131.413 7 7 300
1929279N14142 1929 65 WP MM NOT_NAMED 1929-10-08 10:00:00 NR 15.1000 131.300 main 706 682 __________O___ -1 15.1000 131.300 7 8 297
1929279N14142 1929 65 WP MM NOT_NAMED 1929-10-08 12:00:00 NR 15.2256 131.029 main 682 657 __________P___ -1 15.2256 131.029 7 9 297
1929279N14142 1929 65 WP MM NOT_NAMED 1929-10-08 15:00:00 NR 15.4387 130.622 main 657 641 __________P___ -1 15.4387 130.622 7 9 301
1929279N14142 1929 65 WP MM NOT_NAMED 1929-10-08 18:00:00 NR 15.6899 130.237 main 641 630 __________P___ -1 15.6899 130.237 7 9 308
1929279N14142 1929 65 WP MM NOT_NAMED 1929-10-08 21:00:00 NR 15.9884 129.898 main 636 626 __________P___ -1 15.9884 129.898 7 9 314
1929279N14142 1929 65 WP MM NOT_NAMED 1929-10-08 22:00:00 NR 16.1000 129.800 main 630 619 __________O___ -1 16.1000 129.800 7 9 322
1929279N14142 1929 65 WP MM NOT_NAMED 1929-10-09 00:00:00 NR 16.3248 129.630 main 619 619 __________P___ -1 16.3248 129.630 7 9 329
1929279N14142 1929 65 WP MM NOT_NAMED 1929-10-09 03:00:00 NR 16.7059 129.424 main 621 621 __________P___ -1 16.7059 129.424 7 9 337
1929279N14142 1929 65 WP MM NOT_NAMED 1929-10-09 06:00:00 NR 17.1398 129.266 main 635 633 __________P___ -1 17.1398 129.266 7 10 343
1929279N14142 1929 65 WP MM NOT_NAMED 1929-10-09 09:00:00 NR 17.6262 129.138 main 651 658 __________P___ -1 17.6262 129.138 7 10 347
1929279N14142 1929 65 WP MM NOT_NAMED 1929-10-09 10:00:00 NR 17.8000 129.100 main 665 665 __________O___ -1 17.8000 129.100 7 11 347
1929279N14142 1929 65 WP MM NOT_NAMED 1929-10-09 12:00:00 NR 18.1731 129.008 main 687 687 __________P___ -1 18.1731 129.008 7 12 348
1929279N14142 1929 65 WP MM NOT_NAMED 1929-10-09 15:00:00 NR 18.7773 128.890 main 697 687 __________P___ -1 18.7773 128.890 7 13 351
1929279N14142 1929 65 WP MM NOT_NAMED 1929-10-09 18:00:00 NR 19.4015 128.793 main 692 688 __________P___ -1 19.4015 128.793 7 12 353
1929279N14142 1929 65 WP MM NOT_NAMED 1929-10-09 21:00:00 NR 20.0082 128.720 main 695 695 __________P___ -1 20.0082 128.720 7 12 354
1929279N14142 1929 65 WP MM NOT_NAMED 1929-10-09 22:00:00 NR 20.2000 128.700 main 701 701 __________O___ -1 20.2000 128.700 3 11 354
1929279N14142 1929 65 WP MM NOT_NAMED 1929-10-10 00:00:00 NR 20.5451 128.661 main 710 708 __________P___ -1 20.5451 128.661 3 10 354
1929279N14142 1929 65 WP MM NOT_NAMED 1929-10-10 03:00:00 NR 21.0314 128.621 main 720 725 __________P___ -1 21.0314 128.621 3 10 356
1929279N14142 1929 65 WP MM NOT_NAMED 1929-10-10 06:00:00 NR 21.4937 128.601 main 744 743 __________P___ -1 21.4937 128.601 3 9 0
1929279N14142 1929 65 WP MM NOT_NAMED 1929-10-10 09:00:00 NR 21.9478 128.598 main 743 734 __________P___ -1 21.9478 128.598 3 9 358
1929279N14142 1929 65 WP MM NOT_NAMED 1929-10-10 10:00:00 NR 22.1000 128.600 main 734 722 __________O___ -1 22.1000 128.600 4 10 0
1929279N14142 1929 65 WP MM NOT_NAMED 1929-10-10 12:00:00 NR 22.4245 128.587 main 722 704 __________P___ -1 22.4245 128.587 4 10 358
1929279N14142 1929 65 WP MM NOT_NAMED 1929-10-10 15:00:00 NR 22.9113 128.580 main 704 691 __________P___ -1 22.9113 128.580 4 10 1
1929279N14142 1929 65 WP MM NOT_NAMED 1929-10-10 18:00:00 NR 23.3902 128.601 main 691 681 __________P___ -1 23.3902 128.601 4 9 5
1929279N14142 1929 65 WP MM NOT_NAMED 1929-10-10 21:00:00 NR 23.8517 128.666 main 688 686 __________P___ -1 23.8517 128.666 4 9 9
1929279N14142 1929 65 WP MM NOT_NAMED 1929-10-10 22:00:00 NR 24.0000 128.700 main 686 682 __________O___ -1 24.0000 128.700 4 9 14
1929279N14142 1929 65 WP MM NOT_NAMED 1929-10-11 00:00:00 NR 24.2785 128.786 main 691 689 __________P___ -1 24.2785 128.786 4 9 19
1929279N14142 1929 65 WP MM NOT_NAMED 1929-10-11 03:00:00 NR 24.6773 128.958 main 706 674 __________P___ -1 24.6773 128.958 4 9 24
1929279N14142 1929 65 WP MM NOT_NAMED 1929-10-11 06:00:00 NR 25.0671 129.172 main 674 627 __________P___ -1 25.0671 129.172 4 9 28
1929279N14142 1929 65 WP MM NOT_NAMED 1929-10-11 09:00:00 NR 25.4636 129.415 main 627 614 __________P___ -1 25.4636 129.415 4 9 29
1929279N14142 1929 65 WP MM NOT_NAMED 1929-10-11 10:00:00 NR 25.6000 129.500 main 614 577 __________O___ -1 25.6000 129.500 4 10 29
1929279N14142 1929 65 WP MM NOT_NAMED 1929-10-11 12:00:00 NR 25.8815 129.674 main 577 530 __________P___ -1 25.8815 129.674 4 10 29
1929279N14142 1929 65 WP MM NOT_NAMED 1929-10-11 15:00:00 NR 26.3221 129.944 main 530 471 __________P___ -1 26.3221 129.944 4 10 29
1929279N14142 1929 65 WP MM NOT_NAMED 1929-10-11 18:00:00 NR 26.7787 130.221 main 471 424 __________P___ -1 26.7787 130.221 4 11 28
1929279N14142 1929 65 WP MM NOT_NAMED 1929-10-11 21:00:00 NR 27.2441 130.505 main 424 401 __________P___ -1 27.2441 130.505 4 11 28
1929279N14142 1929 65 WP MM NOT_NAMED 1929-10-11 22:00:00 NR 27.4000 130.600 main 401 __________O___ -1 27.4000 130.600 4 11 31

Digital Typhoon Data and Search

About IBTrACS Database

This database is a web-friendly format of International Best Track Archive for Climate Stewardship (IBTrACS), a global best track data archive curated by NOAA dating back to 1842.

Updated: 2021-10-21